createdAt,value
2018-02-08T00:01:17.051Z,99969.63
2018-02-08T00:03:43.400Z,99969.26
2018-02-08T00:06:09.629Z,99972.83
2018-02-08T00:08:36.612Z,99967.98
2018-02-08T00:11:02.871Z,99968.55
2018-02-08T00:13:29.119Z,99976.75
2018-02-08T00:15:55.366Z,99982.16
2018-02-08T00:18:22.371Z,99982.34
2018-02-08T00:20:48.629Z,99978.63
2018-02-08T00:23:14.875Z,99976.85
2018-02-08T00:25:41.123Z,99977.23
2018-02-08T00:28:07.390Z,99976.86
2018-02-08T00:30:33.635Z,99976.30
2018-02-08T00:32:59.899Z,99961.13
2018-02-08T00:35:26.902Z,99976.22
2018-02-08T00:37:53.152Z,99974.21
2018-02-08T00:40:19.386Z,99978.97
2018-02-08T00:42:45.624Z,99971.72
2018-02-08T00:45:12.604Z,99975.38
2018-02-08T00:47:38.872Z,99973.28
2018-02-08T00:50:05.286Z,99982.80
2018-02-08T00:52:31.532Z,99983.62
2018-02-08T00:54:57.798Z,99988.47
2018-02-08T00:57:24.805Z,99985.13
2018-02-08T00:59:51.034Z,99981.14
2018-02-08T01:02:17.276Z,99981.59
2018-02-08T01:04:43.496Z,99978.73
2018-02-08T01:07:09.950Z,99973.95
2018-02-08T01:09:36.176Z,99978.66
2018-02-08T01:12:02.457Z,99971.87
2018-02-08T01:14:28.699Z,99976.10
2018-02-08T01:16:54.974Z,99979.16
2018-02-08T01:19:22.003Z,99980.81
2018-02-08T01:21:48.249Z,99979.86
2018-02-08T01:24:14.478Z,99979.98
2018-02-08T01:26:40.699Z,99970.94
2018-02-08T01:29:06.927Z,99972.27
2018-02-08T01:31:33.163Z,99973.18
2018-02-08T01:34:00.149Z,99970.06
2018-02-08T01:36:26.406Z,99975.89
2018-02-08T01:38:52.639Z,99972.92
2018-02-08T01:41:18.865Z,99967.30
2018-02-08T01:43:45.091Z,99973.02
2018-02-08T01:46:11.348Z,99974.38
2018-02-08T01:48:38.351Z,99976.05
2018-02-08T01:51:04.614Z,99984.52
2018-02-08T01:53:30.851Z,99984.24
2018-02-08T01:55:57.082Z,99984.08
2018-02-08T01:58:23.344Z,99983.80
2018-02-08T02:00:49.572Z,99981.11
2018-02-08T02:03:15.804Z,99985.72
2018-02-08T02:05:42.045Z,99985.84
2018-02-08T02:08:08.278Z,99992.33
2018-02-08T02:10:35.352Z,99995.09
2018-02-08T02:13:01.595Z,99994.81
2018-02-08T02:15:27.886Z,99983.53
2018-02-08T02:17:54.123Z,99990.02
2018-02-08T02:20:20.431Z,99987.28
2018-02-08T02:22:46.681Z,99983.59
2018-02-08T02:25:12.901Z,99984.98
2018-02-08T02:27:39.136Z,99987.28
2018-02-08T02:30:05.366Z,99980.55
2018-02-08T02:32:31.617Z,99993.03
2018-02-08T02:34:57.835Z,99990.20
2018-02-08T02:37:24.060Z,99997.72
2018-02-08T02:39:50.341Z,100000.55
2018-02-08T02:42:17.343Z,100003.17
2018-02-08T02:44:43.562Z,100000.59
2018-02-08T02:47:09.809Z,100006.45
2018-02-08T02:49:36.094Z,100007.61
2018-02-08T02:52:02.364Z,100003.67
2018-02-08T02:54:28.616Z,100002.85
2018-02-08T02:56:54.854Z,100014.88
2018-02-08T02:59:21.840Z,100009.32
2018-02-08T03:01:48.100Z,100009.14
2018-02-08T03:04:14.366Z,100013.31
2018-02-08T03:06:40.598Z,100009.99
2018-02-08T03:09:07.572Z,100012.84
2018-02-08T03:11:33.785Z,100014.44
2018-02-08T03:14:00.758Z,100013.25
2018-02-08T03:16:26.996Z,100014.39
2018-02-08T03:18:53.254Z,100017.52
2018-02-08T03:21:19.498Z,100022.83
2018-02-08T03:23:45.727Z,100022.48
2018-02-08T03:26:12.649Z,100023.08
2018-02-08T03:28:38.888Z,100027.20
2018-02-08T03:31:09.062Z,100032.64
2018-02-08T03:33:35.280Z,100034.72
2018-02-08T03:36:01.514Z,100036.20
2018-02-08T03:38:27.794Z,100032.97
2018-02-08T03:40:54.018Z,100032.58
2018-02-08T03:43:20.245Z,100033.20
2018-02-08T03:45:46.705Z,100038.62
2018-02-08T03:48:12.952Z,100040.51
2018-02-08T03:50:39.925Z,100039.30
2018-02-08T03:53:06.188Z,100038.31
2018-02-08T03:55:32.440Z,100041.24
2018-02-08T03:57:58.671Z,100042.70
2018-02-08T04:00:25.674Z,100037.47
2018-02-08T04:02:51.925Z,100038.31
2018-02-08T04:05:18.174Z,100043.16
2018-02-08T04:07:44.407Z,100043.42
2018-02-08T04:10:11.370Z,100046.02
2018-02-08T04:12:37.617Z,100040.48
2018-02-08T04:15:03.879Z,100037.78
2018-02-08T04:17:30.115Z,100044.62
2018-02-08T04:19:56.338Z,100040.89
2018-02-08T04:22:22.587Z,100032.83
2018-02-08T04:24:48.855Z,100049.52
2018-02-08T04:27:15.091Z,100059.22
2018-02-08T04:29:41.339Z,100056.86
2018-02-08T04:32:07.611Z,100047.13
2018-02-08T04:34:33.862Z,100051.78
2018-02-08T04:37:00.215Z,100053.00
2018-02-08T04:39:45.311Z,100055.42
2018-02-08T04:42:30.083Z,100050.41
2018-02-08T04:45:15.006Z,100055.75
2018-02-08T04:47:57.045Z,100051.05
2018-02-08T04:50:23.279Z,100050.18
2018-02-08T04:52:49.504Z,100059.97
2018-02-08T04:55:15.743Z,100058.95
2018-02-08T04:57:41.963Z,100063.89
2018-02-08T05:00:08.203Z,100062.57
2018-02-08T05:02:34.445Z,100065.36
2018-02-08T05:05:00.655Z,100065.59
2018-02-08T05:07:26.929Z,100060.66
2018-02-08T05:09:53.239Z,100064.33
2018-02-08T05:12:20.207Z,100067.77
2018-02-08T05:14:46.464Z,100069.44
2018-02-08T05:17:12.692Z,100065.30
2018-02-08T05:19:38.944Z,100077.58
2018-02-08T05:22:05.196Z,100077.41
2018-02-08T05:24:31.431Z,100079.00
2018-02-08T05:26:58.436Z,100085.63
2018-02-08T05:29:24.675Z,100091.19
2018-02-08T05:31:50.892Z,100082.72
2018-02-08T05:34:17.124Z,100088.16
2018-02-08T05:36:43.367Z,100091.30
2018-02-08T05:39:09.627Z,100097.45
2018-02-08T05:41:36.616Z,100097.86
2018-02-08T05:44:02.850Z,100099.20
2018-02-08T05:46:29.120Z,100101.91
2018-02-08T05:48:55.362Z,100102.09
2018-02-08T05:51:22.362Z,100101.54
2018-02-08T05:53:48.588Z,100101.91
2018-02-08T05:56:14.848Z,100102.56
2018-02-08T05:58:41.076Z,100107.70
2018-02-08T06:01:07.337Z,100107.52
2018-02-08T06:03:34.323Z,100101.48
2018-02-08T06:06:00.557Z,100101.84
2018-02-08T06:08:26.789Z,100097.23
2018-02-08T06:10:53.041Z,100105.09
2018-02-08T06:13:19.342Z,100093.61
2018-02-08T06:15:45.609Z,100106.58
2018-02-08T06:18:11.867Z,100104.16
2018-02-08T06:20:38.111Z,100097.46
2018-02-08T06:23:04.360Z,100109.05
2018-02-08T06:25:30.669Z,100116.66
2018-02-08T06:27:57.015Z,100116.88
2018-02-08T06:30:23.287Z,100125.09
2018-02-08T06:32:49.493Z,100126.26
2018-02-08T06:35:18.068Z,100127.11
2018-02-08T06:37:44.315Z,100128.03
2018-02-08T06:40:10.609Z,100130.11
2018-02-08T06:42:36.840Z,100127.85
2018-02-08T06:45:03.068Z,100137.66
2018-02-08T06:47:29.299Z,100134.52
2018-02-08T06:49:55.532Z,100141.76
2018-02-08T06:52:21.784Z,100145.73
2018-02-08T06:54:48.016Z,100149.27
2018-02-08T06:57:14.254Z,100148.36
2018-02-08T06:59:40.532Z,100153.58
2018-02-08T07:02:06.763Z,100153.27
2018-02-08T07:04:33.038Z,100153.42
2018-02-08T07:07:00.022Z,100156.84
2018-02-08T07:09:26.270Z,100156.52
2018-02-08T07:11:52.560Z,100159.25
2018-02-08T07:14:18.833Z,100166.97
2018-02-08T07:16:45.055Z,100170.98
2018-02-08T07:19:11.326Z,100170.13
2018-02-08T07:21:37.602Z,100171.76
2018-02-08T07:24:04.655Z,100180.81
2018-02-08T07:26:30.951Z,100182.15
2018-02-08T07:28:57.233Z,100183.00
2018-02-08T07:31:23.463Z,100179.12
2018-02-08T07:33:49.750Z,100187.55
2018-02-08T07:36:16.026Z,100192.08
2018-02-08T07:38:42.291Z,100187.54
2018-02-08T07:41:08.570Z,100189.77
2018-02-08T07:43:34.846Z,100189.66
2018-02-08T07:46:01.113Z,100187.11
2018-02-08T07:48:28.116Z,100186.64
2018-02-08T07:50:54.405Z,100193.28
2018-02-08T07:53:21.425Z,100191.56
2018-02-08T07:55:48.428Z,100188.39
2018-02-08T07:58:14.670Z,100188.98
2018-02-08T08:00:40.928Z,100188.61
2018-02-08T08:03:07.170Z,100196.46
2018-02-08T08:05:34.160Z,100201.51
2018-02-08T08:08:00.452Z,100200.35
2018-02-08T08:10:27.496Z,100198.28
2018-02-08T08:12:54.549Z,100197.11
2018-02-08T08:15:21.639Z,100203.19
2018-02-08T08:17:47.929Z,100203.33
2018-02-08T08:20:14.983Z,100202.98
2018-02-08T08:22:41.271Z,100202.88
2018-02-08T08:25:07.564Z,100206.60
2018-02-08T08:27:33.866Z,100207.77
2018-02-08T08:30:00.872Z,100207.03
2018-02-08T08:32:28.289Z,100200.88
2018-02-08T08:34:54.561Z,100203.69
2018-02-08T08:37:20.882Z,100201.52
2018-02-08T08:39:47.212Z,100201.36
2018-02-08T08:42:14.322Z,100206.19
2018-02-08T08:44:40.872Z,100211.14
2018-02-08T08:47:07.338Z,100210.16
2018-02-08T08:49:33.917Z,100209.44
2018-02-08T08:52:00.969Z,100212.23
2018-02-08T08:54:27.277Z,100201.66
2018-02-08T08:56:54.273Z,100205.11
2018-02-08T08:59:20.647Z,100207.77
2018-02-08T09:01:46.976Z,100215.27
2018-02-08T09:04:13.308Z,100217.35
2018-02-08T09:06:39.589Z,100219.47
2018-02-08T09:09:05.832Z,100225.42
2018-02-08T09:11:32.168Z,100227.91
2018-02-08T09:13:58.432Z,100236.69
2018-02-08T09:16:24.721Z,100237.85
2018-02-08T09:18:50.953Z,100240.26
2018-02-08T09:21:17.204Z,100231.98
2018-02-08T09:23:43.532Z,100230.72
2018-02-08T09:26:09.936Z,100230.52
2018-02-08T09:28:36.230Z,100232.52
2018-02-08T09:31:03.276Z,100232.23
2018-02-08T09:33:30.366Z,100231.36
2018-02-08T09:35:57.372Z,100232.34
2018-02-08T09:38:24.375Z,100233.41
2018-02-08T09:40:50.644Z,100236.25
2018-02-08T09:43:16.895Z,100242.38
2018-02-08T09:45:44.020Z,100241.06
2018-02-08T09:48:10.265Z,100243.05
2018-02-08T09:50:36.509Z,100243.05
2018-02-08T09:53:02.761Z,100243.53
2018-02-08T09:55:29.011Z,100246.35
2018-02-08T09:57:55.295Z,100244.52
2018-02-08T10:00:21.583Z,100245.52
2018-02-08T10:02:47.872Z,100250.06
2018-02-08T10:05:14.299Z,100248.17
2018-02-08T10:07:40.554Z,100251.70
2018-02-08T10:10:06.831Z,100255.22
2018-02-08T10:12:33.122Z,100252.83
2018-02-08T10:14:59.355Z,100250.45
2018-02-08T10:17:25.646Z,100252.50
2018-02-08T10:19:51.886Z,100250.89
2018-02-08T10:22:18.211Z,100249.19
2018-02-08T10:24:44.512Z,100243.53
2018-02-08T10:27:11.484Z,100243.59
2018-02-08T10:29:37.718Z,100242.11
2018-02-08T10:32:04.018Z,100238.56
2018-02-08T10:34:31.040Z,100242.27
2018-02-08T10:36:57.496Z,100242.52
2018-02-08T10:39:24.484Z,100238.63
2018-02-08T10:41:50.772Z,100237.65
2018-02-08T10:44:17.775Z,100239.89
2018-02-08T10:46:44.035Z,100238.82
2018-02-08T10:49:11.055Z,100240.81
2018-02-08T10:51:37.361Z,100244.84
2018-02-08T10:54:03.588Z,100236.38
2018-02-08T10:56:29.847Z,100245.44
2018-02-08T10:58:56.107Z,100241.65
2018-02-08T11:01:22.367Z,100242.22
2018-02-08T11:03:48.635Z,100242.72
2018-02-08T11:06:14.889Z,100246.11
2018-02-08T11:08:41.135Z,100252.06
2018-02-08T11:11:08.145Z,100248.47
2018-02-08T11:13:34.411Z,100248.86
2018-02-08T11:16:01.384Z,100246.52
2018-02-08T11:18:27.671Z,100252.02
2018-02-08T11:20:53.916Z,100247.16
2018-02-08T11:23:20.886Z,100254.30
2018-02-08T11:25:47.154Z,100253.65
2018-02-08T11:28:13.436Z,100242.64
2018-02-08T11:30:40.452Z,100247.90
2018-02-08T11:33:06.737Z,100245.49
2018-02-08T11:35:33.026Z,100241.34
2018-02-08T11:38:00.161Z,100236.13
2018-02-08T11:40:27.141Z,100228.24
2018-02-08T11:42:53.428Z,100230.57
2018-02-08T11:45:19.991Z,100230.03
2018-02-08T11:47:46.999Z,100228.28
2018-02-08T11:50:13.245Z,100230.00
2018-02-08T11:52:39.545Z,100235.27
2018-02-08T11:55:05.844Z,100239.12
2018-02-08T11:57:32.903Z,100236.03
2018-02-08T11:59:59.137Z,100235.33
2018-02-08T12:02:25.406Z,100239.36
2018-02-08T12:04:51.676Z,100244.33
2018-02-08T12:07:18.688Z,100243.38
2018-02-08T12:09:44.968Z,100242.98
2018-02-08T12:12:11.264Z,100241.91
2018-02-08T12:14:38.304Z,100243.81
2018-02-08T12:17:05.354Z,100239.89
2018-02-08T12:19:31.598Z,100239.36
2018-02-08T12:21:58.665Z,100243.33
2018-02-08T12:24:25.668Z,100242.57
2018-02-08T12:26:51.926Z,100241.45
2018-02-08T12:29:18.927Z,100237.03
2018-02-08T12:31:45.169Z,100231.70
2018-02-08T12:34:11.471Z,100231.80
2018-02-08T12:36:37.728Z,100230.73
2018-02-08T12:39:03.972Z,100235.66
2018-02-08T12:41:30.212Z,100236.60
2018-02-08T12:43:57.242Z,100237.05
2018-02-08T12:46:23.531Z,100232.73
2018-02-08T12:48:49.777Z,100228.42
2018-02-08T12:51:16.145Z,100224.78
2018-02-08T12:53:42.375Z,100226.50
2018-02-08T12:56:08.630Z,100220.64
2018-02-08T12:58:34.905Z,100223.64
2018-02-08T13:01:01.192Z,100222.45
2018-02-08T13:03:28.216Z,100225.59
2018-02-08T13:05:54.502Z,100224.39
2018-02-08T13:08:20.808Z,100225.02
2018-02-08T13:10:47.148Z,100214.84
2018-02-08T13:13:13.420Z,100221.23
2018-02-08T13:15:39.681Z,100217.60
2018-02-08T13:18:06.751Z,100214.55
2018-02-08T13:20:33.019Z,100210.20
2018-02-08T13:22:59.344Z,100214.26
2018-02-08T13:25:25.647Z,100217.09
2018-02-08T13:27:52.015Z,100216.77
2018-02-08T13:30:18.449Z,100214.59
2018-02-08T13:32:44.792Z,100212.80
2018-02-08T13:35:11.056Z,100222.45
2018-02-08T13:37:38.078Z,100217.28
2018-02-08T13:40:04.377Z,100214.03
2018-02-08T13:42:30.636Z,100212.92
2018-02-08T13:44:56.933Z,100202.42
2018-02-08T13:47:29.319Z,100210.28
2018-02-08T13:50:01.678Z,100206.81
2018-02-08T13:52:34.082Z,100211.38
2018-02-08T13:55:00.421Z,100212.13
2018-02-08T13:57:29.585Z,100208.68
2018-02-08T14:02:56.508Z,100202.95
2018-02-08T14:05:22.749Z,100205.19
2018-02-08T14:07:49.068Z,100211.83
2018-02-08T14:10:15.330Z,100205.38
2018-02-08T14:12:41.700Z,100212.25
2018-02-08T14:15:07.966Z,100214.17
2018-02-08T14:17:34.264Z,100213.67
2018-02-08T14:20:00.542Z,100220.12
2018-02-08T14:22:26.831Z,100217.05
2018-02-08T14:24:53.075Z,100222.12
2018-02-08T14:27:20.118Z,100217.38
2018-02-08T14:29:47.129Z,100216.35
2018-02-08T14:32:13.439Z,100217.22
2018-02-08T14:34:40.396Z,100219.55
2018-02-08T14:37:06.704Z,100223.39
2018-02-08T14:39:32.962Z,100226.16
2018-02-08T14:41:59.208Z,100225.58
2018-02-08T14:44:25.495Z,100220.94
2018-02-08T14:46:51.780Z,100232.20
2018-02-08T14:49:18.084Z,100231.30
2018-02-08T14:51:44.340Z,100233.09
2018-02-08T14:54:10.580Z,100238.69
2018-02-08T14:56:37.624Z,100239.30
2018-02-08T14:59:04.646Z,100237.41
2018-02-08T15:01:30.924Z,100243.27
2018-02-08T15:03:57.204Z,100243.69
2018-02-08T15:06:23.502Z,100251.90
2018-02-08T15:08:49.767Z,100249.72
2018-02-08T15:11:16.022Z,100245.54
2018-02-08T15:13:43.025Z,100249.20
2018-02-08T15:16:09.350Z,100244.08
2018-02-08T15:18:35.636Z,100250.52
2018-02-08T15:21:02.616Z,100250.91
2018-02-08T15:23:28.890Z,100244.41
2018-02-08T15:25:55.129Z,100247.87
2018-02-08T15:28:21.379Z,100245.83
2018-02-08T15:30:48.377Z,100247.40
2018-02-08T15:33:14.652Z,100251.63
2018-02-08T15:35:41.649Z,100257.32
2018-02-08T15:38:07.896Z,100256.22
2018-02-08T15:40:34.144Z,100265.16
2018-02-08T15:43:01.210Z,100263.15
2018-02-08T15:45:27.462Z,100259.58
2018-02-08T15:47:53.743Z,100262.88
2018-02-08T15:50:20.052Z,100258.65
2018-02-08T15:52:46.300Z,100258.21
2018-02-08T15:55:12.628Z,100259.67
2018-02-08T15:57:38.911Z,100250.42
2018-02-08T16:00:05.182Z,100256.86
2018-02-08T16:02:31.488Z,100254.80
2018-02-08T16:04:57.768Z,100258.52
2018-02-08T16:07:24.793Z,100262.73
2018-02-08T16:09:51.085Z,100252.58
2018-02-08T16:12:17.410Z,100257.14
2018-02-08T16:14:43.666Z,100261.85
2018-02-08T16:17:09.934Z,100264.58
2018-02-08T16:19:36.990Z,100262.16
2018-02-08T16:22:03.321Z,100257.91
2018-02-08T16:24:29.622Z,100263.31
2018-02-08T16:26:55.891Z,100260.73
2018-02-08T16:29:22.178Z,100264.23
2018-02-08T16:31:48.449Z,100269.12
2018-02-08T16:34:14.713Z,100269.19
2018-02-08T16:36:40.952Z,100268.33
2018-02-08T16:39:07.272Z,100271.76
2018-02-08T16:41:33.524Z,100274.46
2018-02-08T16:43:59.862Z,100270.55
2018-02-08T16:46:26.112Z,100277.20
2018-02-08T16:48:53.125Z,100278.69
2018-02-08T16:51:19.485Z,100284.09
2018-02-08T16:53:45.742Z,100278.05
2018-02-08T16:56:12.006Z,100278.64
2018-02-08T16:58:38.268Z,100280.15
2018-02-08T17:01:04.550Z,100279.27
2018-02-08T17:03:30.834Z,100275.77
2018-02-08T17:05:57.887Z,100286.20
2018-02-08T17:08:24.983Z,100284.81
2018-02-08T17:10:51.225Z,100283.98
2018-02-08T17:13:17.539Z,100286.73
2018-02-08T17:15:43.826Z,100291.16
2018-02-08T17:18:10.919Z,100290.89
2018-02-08T17:20:37.207Z,100291.41
2018-02-08T17:23:04.210Z,100297.92
2018-02-08T17:25:30.520Z,100298.24
2018-02-08T17:27:56.965Z,100295.00
2018-02-08T17:30:23.209Z,100299.21
2018-02-08T17:32:49.495Z,100300.25
2018-02-08T17:35:15.774Z,100298.84
2018-02-08T17:37:42.041Z,100300.95
2018-02-08T17:40:13.110Z,100296.05
2018-02-08T17:42:39.547Z,100291.61
2018-02-08T17:45:05.965Z,100301.52
2018-02-08T17:47:32.210Z,100297.69
2018-02-08T17:49:58.499Z,100287.89
2018-02-08T17:52:25.540Z,100287.59
2018-02-08T17:54:51.936Z,100293.92
2018-02-08T17:57:18.219Z,100287.98
2018-02-08T17:59:45.265Z,100285.11
2018-02-08T18:02:11.535Z,100289.41
2018-02-08T18:04:37.867Z,100291.59
2018-02-08T18:07:04.221Z,100288.44
2018-02-08T18:09:30.646Z,100284.05
2018-02-08T18:11:57.051Z,100286.80
2018-02-08T18:14:23.379Z,100284.05
2018-02-08T18:16:49.719Z,100285.53
2018-02-08T18:19:16.047Z,100274.77
2018-02-08T18:21:42.320Z,100278.74
2018-02-08T18:24:08.783Z,100282.42
2018-02-08T18:26:36.338Z,100282.55
2018-02-08T18:29:03.426Z,100281.64
2018-02-08T18:31:29.906Z,100281.20
2018-02-08T18:33:56.286Z,100277.69
2018-02-08T18:36:22.628Z,100280.94
2018-02-08T18:38:48.896Z,100281.44
2018-02-08T18:41:15.246Z,100287.63
2018-02-08T18:43:41.566Z,100286.73
2018-02-08T18:46:08.651Z,100292.91
2018-02-08T18:48:34.985Z,100291.98
2018-02-08T18:51:01.329Z,100293.33
2018-02-08T18:53:27.662Z,100293.27
2018-02-08T18:55:53.973Z,100288.28
2018-02-08T18:58:20.235Z,100284.27
2018-02-08T19:00:46.579Z,100285.64
2018-02-08T19:03:13.041Z,100283.38
2018-02-08T19:05:39.295Z,100285.52
2018-02-08T19:08:06.365Z,100280.80
2018-02-08T19:10:32.693Z,100272.42
2018-02-08T19:12:59.105Z,100282.68
2018-02-08T19:15:26.160Z,100280.70
2018-02-08T19:17:52.492Z,100278.69
2018-02-08T19:20:18.880Z,100279.70
2018-02-08T19:22:45.206Z,100279.31
2018-02-08T19:25:11.620Z,100279.00
2018-02-08T19:27:37.904Z,100286.48
2018-02-08T19:30:05.004Z,100285.91
2018-02-08T19:32:32.010Z,100288.52
2018-02-08T19:34:59.069Z,100279.52
2018-02-08T19:37:25.523Z,100287.20
2018-02-08T19:39:51.789Z,100286.54
2018-02-08T19:42:18.109Z,100287.58
2018-02-08T19:44:44.385Z,100281.62
2018-02-08T19:47:11.445Z,100281.70
2018-02-08T19:49:37.753Z,100276.58
2018-02-08T19:52:04.891Z,100278.02
2018-02-08T19:54:31.944Z,100289.17
2018-02-08T19:56:58.968Z,100280.08
2018-02-08T19:59:25.296Z,100272.89
2018-02-08T20:01:51.568Z,100270.44
2018-02-08T20:04:18.592Z,100274.25
2018-02-08T20:06:45.040Z,100266.27
2018-02-08T20:09:12.078Z,100268.02
2018-02-08T20:11:38.416Z,100266.34
2018-02-08T20:14:11.769Z,100265.73
2018-02-08T20:16:38.141Z,100265.91
2018-02-08T20:19:04.527Z,100263.69
2018-02-08T20:21:30.859Z,100259.00
2018-02-08T20:23:57.216Z,100262.17
2018-02-08T20:26:23.492Z,100265.56
2018-02-08T20:28:49.771Z,100273.12
2018-02-08T20:31:16.150Z,100270.30
2018-02-08T20:33:42.454Z,100266.34
2018-02-08T20:36:08.721Z,100263.52
2018-02-08T20:38:35.024Z,100263.19
2018-02-08T20:41:02.098Z,100265.38
2018-02-08T20:43:28.394Z,100258.42
2018-02-08T20:45:54.692Z,100265.55
2018-02-08T20:48:20.977Z,100260.17
2018-02-08T20:50:47.253Z,100261.23
2018-02-08T20:53:13.585Z,100261.84
2018-02-08T20:55:39.880Z,100246.38
2018-02-08T20:58:06.242Z,100258.28
2018-02-08T21:00:33.292Z,100263.72
2018-02-08T21:02:59.592Z,100260.28
2018-02-08T21:05:25.877Z,100260.47
2018-02-08T21:07:52.143Z,100265.02
2018-02-08T21:10:18.443Z,100261.81
2018-02-08T21:12:44.685Z,100261.28
2018-02-08T21:15:11.715Z,100263.42
2018-02-08T21:17:38.061Z,100263.37
2018-02-08T21:20:05.075Z,100259.28
2018-02-08T21:22:31.372Z,100253.67
2018-02-08T21:24:58.327Z,100260.08
2018-02-08T21:27:24.600Z,100252.20
2018-02-08T21:29:50.910Z,100259.54
2018-02-08T21:32:17.200Z,100263.63
2018-02-08T21:34:43.472Z,100253.87
2018-02-08T21:37:09.787Z,100254.11
2018-02-08T21:39:36.092Z,100253.16
2018-02-08T21:42:02.430Z,100250.60
2018-02-08T21:44:28.732Z,100241.61
2018-02-08T21:46:55.769Z,100250.30
2018-02-08T21:49:22.068Z,100248.99
2018-02-08T21:51:48.403Z,100251.67
2018-02-08T21:54:14.673Z,100245.40
2018-02-08T21:56:41.693Z,100242.08
2018-02-08T21:59:07.956Z,100238.61
2018-02-08T22:01:34.977Z,100237.70
2018-02-08T22:04:01.284Z,100240.73
2018-02-08T22:06:27.563Z,100238.13
2018-02-08T22:08:54.618Z,100239.16
2018-02-08T22:11:21.641Z,100246.56
2018-02-08T22:13:47.966Z,100243.62
2018-02-08T22:16:14.256Z,100234.92
2018-02-08T22:18:40.597Z,100243.48
2018-02-08T22:21:06.911Z,100242.14
2018-02-08T22:23:33.212Z,100240.13
2018-02-08T22:26:00.208Z,100252.61
2018-02-08T22:28:26.478Z,100245.78
2018-02-08T22:30:53.473Z,100241.48
2018-02-08T22:33:19.713Z,100250.53
2018-02-08T22:35:45.954Z,100232.55
2018-02-08T22:38:12.273Z,100245.21
2018-02-08T22:40:38.541Z,100253.13
2018-02-08T22:43:04.891Z,100253.78
2018-02-08T22:45:31.915Z,100248.14
2018-02-08T22:47:59.729Z,100245.83
2018-02-08T22:50:26.071Z,100242.27
2018-02-08T22:52:52.321Z,100245.69
2018-02-08T22:55:18.595Z,100251.14
2018-02-08T22:57:52.709Z,100247.17
2018-02-08T23:00:19.837Z,100247.30
2018-02-08T23:02:46.085Z,100249.67
2018-02-08T23:05:13.260Z,100239.91
2018-02-08T23:07:40.269Z,100237.58
2018-02-08T23:10:06.567Z,100238.58
2018-02-08T23:12:32.845Z,100237.67
2018-02-08T23:14:59.867Z,100243.97
2018-02-08T23:17:26.157Z,100242.88
2018-02-08T23:19:52.435Z,100239.02
2018-02-08T23:22:18.679Z,100242.96
2018-02-08T23:24:45.704Z,100243.17
2018-02-08T23:27:12.048Z,100244.38
2018-02-08T23:29:39.082Z,100237.98
2018-02-08T23:32:05.416Z,100234.23
2018-02-08T23:34:31.751Z,100232.38
2018-02-08T23:36:58.057Z,100232.60
2018-02-08T23:39:24.414Z,100239.09
2018-02-08T23:41:50.783Z,100234.55
2018-02-08T23:44:17.060Z,100242.83
2018-02-08T23:46:43.336Z,100233.88
2018-02-08T23:49:09.640Z,100239.28
2018-02-08T23:51:35.936Z,100245.30
2018-02-08T23:54:02.291Z,100244.89
2018-02-08T23:56:28.599Z,100244.69
2018-02-08T23:58:54.891Z,100238.16
